Nearby METAR Reports

 

KDWH - Houston/Dw Hooks, Texas, USA
Distance from station: WNW 3mi, 6km
Updated: 09/21/2021 2:53am
Clear
Clear
 Wind from calm
Wind: Calm
Temperature: 79°F , 26°C
Dew Point: 75°F , 24°C
Humidity: 89%
Barometer: 29.93 inHg , 1013.5 hPa
Clouds: Clear
Visibility: 8 miles , 13 km
2021/09/21 07:53 KDWH 210753Z AUTO 00000KT 8SM CLR 26/24 A2993 RMK AO2 SLP133 T02560244
KIAH - Houston/Intnl, Texas, USA
Distance from station: ESE 9mi, 14km
Updated: 09/21/2021 2:53am
Clear
Clear
 Wind from calm
Wind: Calm
Temperature: 81°F , 27°C
Heat Index: 87°F , 31°C
Dew Point: 75°F , 24°C
Humidity: 84%
Barometer: 29.93 inHg , 1013.5 hPa
Clouds: Clear
Visibility: 10 miles , 16 km
2021/09/21 07:53 KIAH 210753Z 00000KT 10SM CLR 27/24 A2993 RMK AO2 SLP132 T02670244
 
KCXO - Conroe, Texas, USA
Distance from station: NNE 21mi, 34km
Updated: 09/21/2021 2:53am
Mist, Clear
Mist, Clear
 Wind from calm
Wind: Calm
Temperature: 73°F , 23°C
Dew Point: 73°F , 23°C
Humidity: 100%
Barometer: 29.95 inHg , 1014.2 hPa
Summary: Mist
Clouds: Clear
Visibility: 4 miles , 6 km
2021/09/21 07:53 KCXO 210753Z AUTO 00000KT 4SM BR CLR 23/23 A2995 RMK AO2 SLP136 T02280228
KMCJ - Houston/Univ, Texas, USA
Distance from station: SSE 24mi, 39km
Updated: 09/21/2021 2:55am
Clear
Clear
 Wind from S
Wind: S 8 mph , 13 km/h, Gust: 15 mph , 24 km/h
Temperature: 79°F , 26°C
Dew Point: 77°F , 25°C
Humidity: 94%
Barometer: 29.92 inHg , 1013.2 hPa
Clouds: Clear
Visibility: 7 miles , 11 km
2021/09/21 07:55 KMCJ 210755Z AUTO 19007G13KT 160V220 7SM CLR 26/25 A2992 RMK A01
 
KTME - Houston Exec, Texas, USA
Distance from station: SW 30mi, 48km
Updated: 09/21/2021 2:55am
Mist, Clear
Mist, Clear
 Wind from S
Wind: S 5 mph , 7 km/h
Temperature: 77°F , 25°C
Dew Point: 77°F , 25°C
Humidity: 100%
Barometer: 29.94 inHg , 1013.9 hPa
Summary: Mist
Clouds: Clear
Visibility: 4 miles , 6 km
2021/09/21 07:55 KTME 210755Z AUTO 18004KT 4SM BR CLR 25/25 A2994 RMK AO2
KHOU - Houston/Hobby, Texas, USA
Distance from station: SSE 32mi, 51km
Updated: 09/21/2021 2:53am
Clear
Clear
 Wind from S
Wind: S 3 mph , 6 km/h
Temperature: 81°F , 27°C
Heat Index: 87°F , 31°C
Dew Point: 75°F , 24°C
Humidity: 84%
Barometer: 29.92 inHg , 1013.2 hPa
Clouds: Clear
Visibility: 10 miles , 16 km
2021/09/21 07:53 KHOU 210753Z 18003KT 10SM CLR 27/24 A2992 RMK AO2 SLP136 T02670244
 
KSGR - Houston/Sugar La, Texas, USA
Distance from station: SSW 32mi, 51km
Updated: 09/21/2021 2:53am
Clear
Clear
 Wind from calm
Wind: Calm
Temperature: 81°F , 27°C
Heat Index: 87°F , 31°C
Dew Point: 75°F , 24°C
Humidity: 84%
Barometer: 29.92 inHg , 1013.2 hPa
Clouds: Clear
Visibility: 8 miles , 13 km
2021/09/21 07:53 KSGR 210753Z AUTO 00000KT 8SM CLR 27/24 A2992 RMK AO2 SLP133 T02670244
K6R3 - Cleveland Muni, Texas, USA
Distance from station: NE 36mi, 58km
Updated: 09/21/2021 2:55am
Mist, Partly cloudy
Mist, Partly cloudy
 Wind from calm
Wind: Calm
Temperature: 75°F , 24°C
Dew Point: 75°F , 24°C
Humidity: 100%
Barometer: 29.95 inHg , 1014.2 hPa
Summary: Mist
Clouds: Partly cloudy
Visibility: 4 miles , 6 km
Cloud details: Partly cloudy 900 ft
2021/09/21 07:55 K6R3 210755Z AUTO 00000KT 4SM BR SCT009 24/24 A2995 RMK AO2 T02350235
 
KAXH - Houston/Southwst, Texas, USA
Distance from station: S 37mi, 60km
Updated: 09/21/2021 2:55am
Fog, Mostly cloudy
Fog, Mostly cloudy
 Wind from calm
Wind: Calm
Temperature: 73°F , 23°C
Dew Point: 73°F , 23°C
Humidity: 100%
Barometer: 29.94 inHg , 1013.9 hPa
Summary: Fog
Clouds: Mostly cloudy
Visibility: 1/2 mile , 0.8 km
Cloud details: Mostly cloudy 1700 ft
2021/09/21 07:55 KAXH 210755Z AUTO 00000KT 1/2SM FG BKN017 23/23 A2994 RMK AO2 T02340226
KEFD - Houston/Ellingto, Texas, USA
Distance from station: SSE 37mi, 60km
Updated: 09/21/2021 2:50am
Clear
Clear
 Wind from SSE
Wind: SSE 3 mph , 6 km/h
Temperature: 77°F , 25°C
Dew Point: 77°F , 25°C
Humidity: 100%
Barometer: 29.92 inHg , 1013.2 hPa
Clouds: Clear
Visibility: 10 miles , 16 km
2021/09/21 07:50 KEFD 210750Z 16003KT 10SM CLR 25/25 A2992
 
KLVJ - Houston, Texas, USA
Distance from station: SSE 40mi, 64km
Updated: 09/21/2021 2:53am
Clear
Clear
 Wind from calm
Wind: Calm
Temperature: 79°F , 26°C
Dew Point: 77°F , 25°C
Humidity: 94%
Barometer: 29.94 inHg , 1013.9 hPa
Clouds: Clear
Visibility: 7 miles , 11 km
2021/09/21 07:53 KLVJ 210753Z AUTO 00000KT 7SM CLR 26/25 A2994 RMK AO2 SLP137 T02610250
KUTS - Huntsville, Texas, USA
Distance from station: N 48mi, 78km
Updated: 09/21/2021 2:53am
Clear
Clear
 Wind from S
Wind: S 8 mph , 13 km/h
Temperature: 81°F , 27°C
Heat Index: 87°F , 31°C
Dew Point: 75°F , 24°C
Humidity: 84%
Barometer: 29.93 inHg , 1013.5 hPa
Clouds: Clear
Visibility: 10 miles , 16 km
2021/09/21 07:53 KUTS 210753Z AUTO 19007KT 10SM CLR 27/24 A2993 RMK AO2 SLP131 T02670239